Time;durP1;ratioP1;P1;durP2;ratioP2;P2;SDS_P1;SDS_P2;PMS_P1;PMS_P2;Temp;Humidity;BMP_temperature;BMP_pressure;BME280_temperature;BME280_humidity;BME280_pressure;Samples;Min_cycle;Max_cycle;Signal;HPM_P1;HPM_P2
2021/07/26 00:01:18;;;;;;;;;;;21.60;67.30;;;;;;501363;237;1496;-71
2021/07/26 00:03:19;;;;;;;;;;;21.50;67.50;;;;;;501335;237;2163;-71
2021/07/26 00:05:21;;;;;;;;;;;21.50;67.60;;;;;;501403;235;1311;-71
2021/07/26 00:07:22;;;;;;;;;;;21.40;67.80;;;;;;501351;237;1078;-71
2021/07/26 00:09:23;;;;;;;;;;;21.40;68.00;;;;;;501401;237;1044;-71
2021/07/26 00:11:25;;;;;;;;;;;21.40;68.10;;;;;;501377;237;1065;-71
2021/07/26 00:13:26;;;;;;;;;;;21.30;68.20;;;;;;501320;237;1175;-71
2021/07/26 00:15:29;;;;;;;;;;;21.30;68.30;;;;;;501336;237;1024;-70
2021/07/26 00:17:30;;;;;;;;;;;21.30;68.30;;;;;;501330;237;1218;-71
2021/07/26 00:19:31;;;;;;;;;;;21.30;68.40;;;;;;501312;237;1094;-71
2021/07/26 00:21:33;;;;;;;;;;;21.30;68.50;;;;;;501330;237;1246;-70
2021/07/26 00:23:34;;;;;;;;;;;21.30;68.60;;;;;;501290;237;2163;-71
2021/07/26 00:25:36;;;;;;;;;;;21.30;68.50;;;;;;501266;237;1439;-71
2021/07/26 00:27:37;;;;;;;;;;;21.30;68.50;;;;;;501183;237;1354;-71
2021/07/26 00:29:38;;;;;;;;;;;21.30;68.50;;;;;;501233;237;1214;-71
2021/07/26 00:31:40;;;;;;;;;;;21.30;68.40;;;;;;501180;237;1138;-71
2021/07/26 00:33:56;;;;;;;;;;;21.30;68.30;;;;;;501226;237;1245;-71
2021/07/26 00:35:47;;;;;;;;;;;21.30;68.40;;;;;;500296;238;1821;-71
2021/07/26 00:37:49;;;;;;;;;;;21.30;68.40;;;;;;501196;237;1205;-71
2021/07/26 00:39:50;;;;;;;;;;;21.30;68.30;;;;;;501225;237;1150;-71
2021/07/26 00:41:52;;;;;;;;;;;21.30;68.40;;;;;;501245;237;1278;-70
2021/07/26 00:43:53;;;;;;;;;;;21.30;68.40;;;;;;501296;237;2172;-71
2021/07/26 00:45:54;;;;;;;;;;;21.30;68.40;;;;;;501355;237;1747;-71
2021/07/26 00:47:56;;;;;;;;;;;21.30;68.30;;;;;;501304;237;1299;-71
2021/07/26 00:49:57;;;;;;;;;;;21.30;68.30;;;;;;501395;237;851;-71
2021/07/26 00:51:58;;;;;;;;;;;21.30;68.20;;;;;;501285;237;1368;-71
2021/07/26 00:54:00;;;;;;;;;;;21.30;68.20;;;;;;501369;237;1711;-71
2021/07/26 00:56:03;;;;;;;;;;;21.30;68.20;;;;;;501339;237;1613;-71
2021/07/26 00:58:06;;;;;;;;;;;21.30;68.20;;;;;;501310;237;1008;-71
2021/07/26 01:00:08;;;;;;;;;;;21.30;68.20;;;;;;501408;237;950;-71
2021/07/26 01:02:09;;;;;;;;;;;21.30;68.20;;;;;;501307;237;1333;-71
2021/07/26 01:04:10;;;;;;;;;;;21.30;68.20;;;;;;501367;237;2160;-71
2021/07/26 01:06:12;;;;;;;;;;;21.30;68.10;;;;;;501368;237;1275;-71
2021/07/26 01:08:13;;;;;;;;;;;21.30;68.10;;;;;;501424;237;1222;-71
2021/07/26 01:10:14;;;;;;;;;;;21.30;68.20;;;;;;501388;237;1399;-71
2021/07/26 01:12:16;;;;;;;;;;;21.30;68.20;;;;;;501334;237;1098;-71
2021/07/26 01:14:17;;;;;;;;;;;21.30;68.10;;;;;;501389;237;939;-71
2021/07/26 01:16:19;;;;;;;;;;;21.30;68.20;;;;;;501324;237;1222;-71
2021/07/26 01:18:22;;;;;;;;;;;21.30;68.20;;;;;;501309;237;1068;-71
2021/07/26 01:20:23;;;;;;;;;;;21.30;68.20;;;;;;501397;237;1208;-71
2021/07/26 01:22:25;;;;;;;;;;;21.30;68.10;;;;;;501309;237;1136;-71
2021/07/26 01:24:26;;;;;;;;;;;21.30;68.10;;;;;;501396;237;2164;-71
2021/07/26 01:26:28;;;;;;;;;;;21.30;68.20;;;;;;501434;235;1222;-71
2021/07/26 01:28:29;;;;;;;;;;;21.30;68.20;;;;;;501417;237;978;-71
2021/07/26 01:30:31;;;;;;;;;;;21.30;68.20;;;;;;501421;237;1297;-71
2021/07/26 01:32:32;;;;;;;;;;;21.30;68.20;;;;;;501397;237;1458;-71
2021/07/26 01:34:33;;;;;;;;;;;21.30;68.10;;;;;;501471;237;1236;-71
2021/07/26 01:36:35;;;;;;;;;;;21.40;68.10;;;;;;501435;237;1330;-71
2021/07/26 01:38:36;;;;;;;;;;;21.40;68.10;;;;;;501317;238;1941;-71
2021/07/26 01:40:39;;;;;;;;;;;21.40;68.10;;;;;;501498;237;1806;-71
2021/07/26 01:42:39;;;;;;;;;;;21.40;68.20;;;;;;501333;238;1516;-71
2021/07/26 01:44:40;;;;;;;;;;;21.40;68.10;;;;;;501463;237;2171;-71
2021/07/26 01:46:41;;;;;;;;;;;21.40;68.10;;;;;;501459;237;1152;-71
2021/07/26 01:48:45;;;;;;;;;;;21.30;68.00;;;;;;501439;237;1242;-71
2021/07/26 01:50:47;;;;;;;;;;;21.40;68.10;;;;;;501460;237;869;-71
2021/07/26 01:52:48;;;;;;;;;;;21.40;68.20;;;;;;501400;237;1208;-71
2021/07/26 01:54:50;;;;;;;;;;;21.30;68.20;;;;;;501469;237;1005;-71
2021/07/26 01:56:51;;;;;;;;;;;21.30;68.20;;;;;;501505;237;1099;-71
2021/07/26 01:58:52;;;;;;;;;;;21.30;68.20;;;;;;501463;237;994;-71
2021/07/26 02:00:54;;;;;;;;;;;21.30;68.10;;;;;;501441;237;1178;-71
2021/07/26 02:02:55;;;;;;;;;;;21.40;68.00;;;;;;501392;237;1078;-71
2021/07/26 02:04:58;;;;;;;;;;;21.40;68.00;;;;;;501300;238;2152;-71
2021/07/26 02:06:58;;;;;;;;;;;21.30;68.20;;;;;;501288;237;1430;-71
2021/07/26 02:08:59;;;;;;;;;;;21.40;68.40;;;;;;501431;237;1025;-71
2021/07/26 02:11:01;;;;;;;;;;;21.40;68.50;;;;;;501333;237;934;-71
2021/07/26 02:13:02;;;;;;;;;;;21.30;68.60;;;;;;501308;237;1151;-71
2021/07/26 02:15:04;;;;;;;;;;;21.20;68.70;;;;;;501365;237;1049;-71
2021/07/26 02:17:06;;;;;;;;;;;21.20;68.90;;;;;;501351;237;1210;-71
2021/07/26 02:19:07;;;;;;;;;;;21.20;69.00;;;;;;501271;237;1445;-71
2021/07/26 02:21:08;;;;;;;;;;;21.10;68.90;;;;;;501277;237;1333;-71
2021/07/26 02:23:10;;;;;;;;;;;21.10;68.90;;;;;;501251;237;1218;-71
2021/07/26 02:25:11;;;;;;;;;;;21.10;69.00;;;;;;501283;237;2116;-70
2021/07/26 02:27:13;;;;;;;;;;;21.10;69.10;;;;;;501267;237;1115;-71
2021/07/26 02:29:14;;;;;;;;;;;21.20;69.00;;;;;;501243;237;929;-71
2021/07/26 02:31:15;;;;;;;;;;;21.10;68.90;;;;;;501230;237;1271;-71
2021/07/26 02:33:17;;;;;;;;;;;21.20;68.90;;;;;;501255;237;938;-71
2021/07/26 02:35:18;;;;;;;;;;;21.10;68.90;;;;;;501276;237;993;-71
2021/07/26 02:37:19;;;;;;;;;;;21.20;68.90;;;;;;501256;237;1313;-71
2021/07/26 02:39:21;;;;;;;;;;;21.10;68.80;;;;;;501253;237;984;-71
2021/07/26 02:41:22;;;;;;;;;;;21.10;69.00;;;;;;501253;237;1253;-71
2021/07/26 02:43:23;;;;;;;;;;;21.10;68.80;;;;;;501320;237;928;-71
2021/07/26 02:45:25;;;;;;;;;;;21.10;68.90;;;;;;501290;237;2176;-71
2021/07/26 02:47:26;;;;;;;;;;;21.10;69.00;;;;;;501288;237;1218;-71
2021/07/26 02:49:28;;;;;;;;;;;21.10;68.90;;;;;;501335;237;998;-71
2021/07/26 02:51:29;;;;;;;;;;;21.10;69.00;;;;;;501252;237;1425;-70
2021/07/26 02:53:30;;;;;;;;;;;21.10;69.00;;;;;;501347;237;1231;-71
2021/07/26 02:55:32;;;;;;;;;;;21.10;69.10;;;;;;501343;237;1063;-71
2021/07/26 02:57:33;;;;;;;;;;;21.10;69.00;;;;;;501296;237;1080;-71
2021/07/26 02:59:36;;;;;;;;;;;21.10;69.00;;;;;;501319;237;1228;-71
2021/07/26 03:01:38;;;;;;;;;;;21.10;68.90;;;;;;501286;237;1215;-71
2021/07/26 03:03:39;;;;;;;;;;;21.10;69.00;;;;;;501384;237;941;-71
2021/07/26 03:05:40;;;;;;;;;;;21.10;69.00;;;;;;501345;237;2159;-71
2021/07/26 03:07:42;;;;;;;;;;;21.10;69.00;;;;;;501329;237;1206;-71
2021/07/26 03:09:43;;;;;;;;;;;21.10;69.00;;;;;;501387;237;985;-71
2021/07/26 03:11:45;;;;;;;;;;;21.10;69.10;;;;;;501276;237;1471;-70
2021/07/26 03:13:46;;;;;;;;;;;21.10;69.00;;;;;;501275;237;1129;-71
2021/07/26 03:15:47;;;;;;;;;;;21.10;69.20;;;;;;501111;237;1297;-71
2021/07/26 03:17:49;;;;;;;;;;;21.10;69.20;;;;;;501126;237;1093;-71
2021/07/26 03:19:50;;;;;;;;;;;21.10;69.20;;;;;;501165;237;947;-70
2021/07/26 03:21:51;;;;;;;;;;;21.00;69.20;;;;;;501150;235;1267;-70
2021/07/26 03:23:53;;;;;;;;;;;21.00;69.40;;;;;;501147;237;1292;-71
2021/07/26 03:25:54;;;;;;;;;;;21.00;69.50;;;;;;501117;237;2172;-71
2021/07/26 03:27:56;;;;;;;;;;;21.00;69.40;;;;;;501154;237;1081;-71
2021/07/26 03:29:57;;;;;;;;;;;21.00;69.30;;;;;;501176;237;1085;-71
2021/07/26 03:31:58;;;;;;;;;;;21.00;69.30;;;;;;501084;237;1225;-71
2021/07/26 03:34:00;;;;;;;;;;;21.10;69.20;;;;;;501203;237;1129;-70
2021/07/26 03:36:02;;;;;;;;;;;21.10;69.10;;;;;;501085;237;1141;-71
2021/07/26 03:38:05;;;;;;;;;;;21.10;69.00;;;;;;501094;237;1185;-71
2021/07/26 03:40:07;;;;;;;;;;;21.10;69.00;;;;;;501068;237;948;-71
2021/07/26 03:42:08;;;;;;;;;;;21.10;69.00;;;;;;501036;237;1225;-71
2021/07/26 03:44:10;;;;;;;;;;;21.10;69.00;;;;;;500972;237;2176;-71
2021/07/26 03:46:11;;;;;;;;;;;21.10;68.80;;;;;;501081;237;914;-70
2021/07/26 03:48:12;;;;;;;;;;;21.10;68.70;;;;;;501086;237;1200;-71
2021/07/26 03:50:15;;;;;;;;;;;21.10;68.80;;;;;;501051;237;1476;-70
2021/07/26 03:52:17;;;;;;;;;;;21.10;68.70;;;;;;501034;237;1237;-70
2021/07/26 03:54:18;;;;;;;;;;;21.20;68.70;;;;;;501057;237;1247;-72
2021/07/26 03:56:20;;;;;;;;;;;21.20;68.70;;;;;;501070;237;1124;-71
2021/07/26 03:58:21;;;;;;;;;;;21.20;68.70;;;;;;501115;237;1000;-70
2021/07/26 04:00:22;;;;;;;;;;;21.10;68.60;;;;;;501161;237;1338;-71
2021/07/26 04:02:24;;;;;;;;;;;21.20;68.60;;;;;;501100;237;1145;-71
2021/07/26 04:04:26;;;;;;;;;;;21.20;68.70;;;;;;501090;237;2124;-71
2021/07/26 04:06:27;;;;;;;;;;;21.20;68.60;;;;;;501156;237;1436;-70
2021/07/26 04:08:30;;;;;;;;;;;21.20;68.60;;;;;;501113;237;1201;-70
2021/07/26 04:10:29;;;;;;;;;;;21.10;68.50;;;;;;501033;238;2074;-70
2021/07/26 04:12:33;;;;;;;;;;;21.20;68.50;;;;;;501271;237;1375;-70
2021/07/26 04:14:36;;;;;;;;;;;21.20;68.50;;;;;;501186;238;1427;-70
2021/07/26 04:16:34;;;;;;;;;;;21.20;68.50;;;;;;500881;238;2098;-70
2021/07/26 04:18:35;;;;;;;;;;;21.20;68.60;;;;;;501048;237;1832;-70
2021/07/26 04:20:36;;;;;;;;;;;21.20;68.50;;;;;;501146;237;921;-70
2021/07/26 04:22:37;;;;;;;;;;;21.10;68.50;;;;;;501088;237;1019;-70
2021/07/26 04:24:39;;;;;;;;;;;21.20;68.60;;;;;;501089;237;2176;-70
2021/07/26 04:26:40;;;;;;;;;;;21.10;68.50;;;;;;501082;237;1173;-70
2021/07/26 04:28:42;;;;;;;;;;;21.20;68.50;;;;;;501106;237;1199;-70
2021/07/26 04:30:44;;;;;;;;;;;21.20;68.60;;;;;;501205;237;968;-70
2021/07/26 04:32:45;;;;;;;;;;;21.20;68.60;;;;;;501076;237;2178;-70
2021/07/26 04:34:46;;;;;;;;;;;21.20;68.60;;;;;;501242;237;943;-70
2021/07/26 04:36:47;;;;;;;;;;;21.20;68.60;;;;;;501231;237;1332;-70
2021/07/26 04:38:49;;;;;;;;;;;21.20;68.50;;;;;;501258;237;1207;-70
2021/07/26 04:40:50;;;;;;;;;;;21.20;68.40;;;;;;501351;237;957;-70
2021/07/26 04:42:51;;;;;;;;;;;21.20;68.50;;;;;;501359;237;1086;-70
2021/07/26 04:44:53;;;;;;;;;;;21.20;68.40;;;;;;501283;237;2175;-70
2021/07/26 04:46:54;;;;;;;;;;;21.20;68.50;;;;;;501365;237;937;-70
2021/07/26 04:48:55;;;;;;;;;;;21.20;68.50;;;;;;501340;237;1072;-70
2021/07/26 04:50:57;;;;;;;;;;;21.20;68.40;;;;;;501280;237;1155;-70
2021/07/26 04:52:58;;;;;;;;;;;21.20;68.40;;;;;;501238;237;1149;-70
2021/07/26 04:55:00;;;;;;;;;;;21.20;68.40;;;;;;501271;237;1187;-70
2021/07/26 04:57:01;;;;;;;;;;;21.20;68.40;;;;;;501357;237;1055;-70
2021/07/26 04:59:02;;;;;;;;;;;21.20;68.40;;;;;;501285;237;1087;-70
2021/07/26 05:01:04;;;;;;;;;;;21.30;68.40;;;;;;501293;237;1220;-70
2021/07/26 05:03:05;;;;;;;;;;;21.30;68.40;;;;;;501316;237;1217;-70
2021/07/26 05:05:06;;;;;;;;;;;21.20;68.30;;;;;;501339;237;2208;-70
2021/07/26 05:07:08;;;;;;;;;;;21.30;68.40;;;;;;501534;237;1177;-70
2021/07/26 05:09:09;;;;;;;;;;;21.30;68.40;;;;;;501405;237;1488;-70
2021/07/26 05:16:12;;;;;;;;;;;21.30;68.40;;;;;;492482;243;1326;-70
2021/07/26 05:18:18;;;;;;;;;;;21.20;68.40;;;;;;492608;242;1042;-70
2021/07/26 05:20:27;;;;;;;;;;;21.20;68.50;;;;;;492602;243;1894;-70
2021/07/26 05:22:35;;;;;;;;;;;21.20;68.50;;;;;;492600;243;1514;-70
2021/07/26 05:24:39;;;;;;;;;;;21.20;68.60;;;;;;484365;238;1456;-70
2021/07/26 05:26:46;;;;;;;;;;;21.20;68.60;;;;;;484338;246;2165;-70
2021/07/26 05:28:53;;;;;;;;;;;21.20;68.60;;;;;;492270;243;1268;-70
2021/07/26 05:30:58;;;;;;;;;;;21.20;68.60;;;;;;492637;242;1073;-70
2021/07/26 05:49:43;;;;;;;;;;;21.40;68.40;;;;;;484527;241;1476;-71
2021/07/26 06:12:12;;;;;;;;;;;21.30;69.10;;;;;;483039;241;1286;-70
2021/07/26 06:27:56;;;;;;;;;;;21.20;69.40;;;;;;458192;254;2772;-70
2021/07/26 06:43:04;;;;;;;;;;;21.20;69.50;;;;;;446947;254;3030;-70
2021/07/26 06:47:44;;;;;;;;;;;21.20;69.30;;;;;;443650;261;2133;-70
2021/07/26 06:54:30;;;;;;;;;;;21.20;69.50;;;;;;459581;248;1626;-70
2021/07/26 06:59:06;;;;;;;;;;;21.20;69.60;;;;;;482700;242;1151;-71
2021/07/26 07:01:07;;;;;;;;;;;21.20;69.60;;;;;;477242;245;1187;-71
2021/07/26 07:03:11;;;;;;;;;;;21.20;69.30;;;;;;472650;253;1803;-71
2021/07/26 07:05:13;;;;;;;;;;;21.20;69.30;;;;;;482612;244;2185;-71
2021/07/26 07:07:17;;;;;;;;;;;21.20;69.40;;;;;;472947;253;1743;-71
2021/07/26 07:09:23;;;;;;;;;;;21.20;69.60;;;;;;482538;248;1027;-71
2021/07/26 07:11:31;;;;;;;;;;;21.20;69.60;;;;;;473914;246;1304;-71
2021/07/26 07:13:33;;;;;;;;;;;21.20;69.70;;;;;;473012;252;1949;-71
2021/07/26 07:15:35;;;;;;;;;;;21.10;69.70;;;;;;480174;249;1449;-71
2021/07/26 07:17:36;;;;;;;;;;;21.20;69.80;;;;;;479930;249;1183;-71
2021/07/26 07:19:40;;;;;;;;;;;21.20;69.80;;;;;;479830;249;1032;-71
2021/07/26 07:21:38;;;;;;;;;;;21.20;69.80;;;;;;479774;246;1457;-71
2021/07/26 07:23:40;;;;;;;;;;;21.10;69.90;;;;;;479905;249;1197;-71
2021/07/26 07:25:41;;;;;;;;;;;21.10;70.00;;;;;;480024;245;2198;-71
2021/07/26 07:27:45;;;;;;;;;;;21.10;70.00;;;;;;480130;248;1233;-71
2021/07/26 07:29:47;;;;;;;;;;;21.10;70.20;;;;;;480280;249;1139;-71
2021/07/26 07:31:50;;;;;;;;;;;21.10;70.20;;;;;;494326;236;1612;-71
2021/07/26 07:33:51;;;;;;;;;;;21.10;70.20;;;;;;489618;243;1140;-70
2021/07/26 07:35:52;;;;;;;;;;;21.00;70.20;;;;;;490630;243;1232;-70
2021/07/26 07:37:54;;;;;;;;;;;21.00;70.40;;;;;;491128;243;1280;-71
2021/07/26 07:39:56;;;;;;;;;;;21.10;70.50;;;;;;492531;242;1144;-71
2021/07/26 07:41:57;;;;;;;;;;;21.10;70.40;;;;;;495320;241;1281;-71
2021/07/26 07:43:58;;;;;;;;;;;21.10;70.30;;;;;;495447;241;1153;-71
2021/07/26 07:45:59;;;;;;;;;;;21.10;70.20;;;;;;495207;241;2124;-71
2021/07/26 07:48:01;;;;;;;;;;;21.10;70.20;;;;;;495561;241;1302;-71
2021/07/26 07:50:04;;;;;;;;;;;21.10;70.10;;;;;;495343;241;1061;-70
2021/07/26 07:52:04;;;;;;;;;;;21.10;70.10;;;;;;495209;241;1473;-71
2021/07/26 07:54:06;;;;;;;;;;;21.10;70.10;;;;;;495710;241;1111;-71
2021/07/26 07:56:09;;;;;;;;;;;21.10;70.00;;;;;;495938;241;2116;-70
2021/07/26 07:58:10;;;;;;;;;;;21.10;70.00;;;;;;496276;238;1297;-71
2021/07/26 08:00:12;;;;;;;;;;;21.20;70.00;;;;;;495946;241;1065;-71
2021/07/26 08:02:13;;;;;;;;;;;21.20;70.00;;;;;;495689;241;1357;-71
2021/07/26 08:04:15;;;;;;;;;;;21.10;70.00;;;;;;495328;241;1066;-71
2021/07/26 08:06:16;;;;;;;;;;;21.20;70.00;;;;;;495915;241;2182;-71
2021/07/26 08:08:17;;;;;;;;;;;21.20;70.00;;;;;;495740;241;1173;-71
2021/07/26 08:10:18;;;;;;;;;;;21.20;70.00;;;;;;495120;241;1184;-71
2021/07/26 08:12:20;;;;;;;;;;;21.20;70.00;;;;;;494909;241;1286;-71
2021/07/26 08:14:21;;;;;;;;;;;21.20;69.80;;;;;;494969;241;1269;-71
2021/07/26 08:16:23;;;;;;;;;;;21.40;69.70;;;;;;495260;241;1281;-71
2021/07/26 08:18:25;;;;;;;;;;;21.40;69.40;;;;;;495311;241;1121;-71
2021/07/26 08:20:27;;;;;;;;;;;21.40;69.60;;;;;;495582;241;1208;-71
2021/07/26 08:22:28;;;;;;;;;;;21.40;69.50;;;;;;495632;241;1188;-71
2021/07/26 08:24:47;;;;;;;;;;;21.30;69.60;;;;;;496077;241;970;-71
2021/07/26 08:26:49;;;;;;;;;;;21.40;69.60;;;;;;496123;241;2174;-71
2021/07/26 08:28:54;;;;;;;;;;;21.40;69.70;;;;;;496248;241;1324;-71
2021/07/26 08:31:01;;;;;;;;;;;21.40;69.60;;;;;;495896;238;1545;-71
2021/07/26 08:33:05;;;;;;;;;;;21.30;69.80;;;;;;496016;241;1936;-71
2021/07/26 08:35:08;;;;;;;;;;;21.20;69.90;;;;;;496134;241;1049;-71
2021/07/26 08:37:10;;;;;;;;;;;21.20;70.00;;;;;;496268;238;1231;-72
2021/07/26 08:39:14;;;;;;;;;;;21.20;70.00;;;;;;495986;241;1180;-71
2021/07/26 08:41:20;;;;;;;;;;;21.30;70.00;;;;;;496255;236;1328;-71
2021/07/26 08:43:23;;;;;;;;;;;21.20;69.90;;;;;;496093;241;2184;-71
2021/07/26 08:45:22;;;;;;;;;;;21.20;70.00;;;;;;495811;241;1354;-71
2021/07/26 08:47:23;;;;;;;;;;;21.30;69.90;;;;;;496099;241;2151;-71
2021/07/26 08:49:24;;;;;;;;;;;21.20;69.90;;;;;;495171;241;1097;-71
2021/07/26 08:51:26;;;;;;;;;;;21.20;70.00;;;;;;494914;241;1197;-71
2021/07/26 08:53:27;;;;;;;;;;;21.20;70.10;;;;;;494694;241;1136;-71
2021/07/26 08:55:29;;;;;;;;;;;21.30;70.10;;;;;;494280;241;1132;-67
2021/07/26 08:57:30;;;;;;;;;;;21.20;70.00;;;;;;493915;241;1462;-67
2021/07/26 08:59:31;;;;;;;;;;;21.20;70.10;;;;;;494004;241;1215;-67
2021/07/26 09:01:32;;;;;;;;;;;21.20;70.20;;;;;;494145;241;1371;-67
2021/07/26 09:03:34;;;;;;;;;;;21.20;70.30;;;;;;494493;241;1227;-67
2021/07/26 09:05:35;;;;;;;;;;;21.20;70.30;;;;;;494532;241;1177;-67
2021/07/26 09:07:36;;;;;;;;;;;21.20;70.30;;;;;;494791;241;2175;-67
2021/07/26 09:09:38;;;;;;;;;;;21.20;70.30;;;;;;494940;241;842;-67
2021/07/26 09:11:39;;;;;;;;;;;21.40;69.80;;;;;;494857;237;1517;-67
2021/07/26 09:13:44;;;;;;;;;;;21.90;68.00;;;;;;494667;241;1181;-67
2021/07/26 09:15:43;;;;;;;;;;;22.10;67.10;;;;;;493851;241;1627;-71
2021/07/26 09:17:43;;;;;;;;;;;22.30;66.30;;;;;;494657;241;1505;-71
2021/07/26 09:19:44;;;;;;;;;;;22.30;66.10;;;;;;495793;241;1021;-71
2021/07/26 09:21:46;;;;;;;;;;;22.50;65.50;;;;;;496083;241;1145;-71
2021/07/26 09:23:47;;;;;;;;;;;22.50;65.20;;;;;;496022;241;1324;-71
2021/07/26 09:25:50;;;;;;;;;;;22.70;65.00;;;;;;495871;241;1239;-70
2021/07/26 09:27:50;;;;;;;;;;;22.60;64.80;;;;;;495802;241;2174;-70
2021/07/26 09:29:53;;;;;;;;;;;22.70;64.60;;;;;;494947;241;1661;-71
2021/07/26 09:31:56;;;;;;;;;;;22.80;64.40;;;;;;494857;241;1603;-71
2021/07/26 09:33:57;;;;;;;;;;;22.80;64.20;;;;;;495029;241;1073;-71
2021/07/26 09:35:58;;;;;;;;;;;22.80;64.10;;;;;;495771;241;1235;-71
2021/07/26 09:37:59;;;;;;;;;;;22.90;64.00;;;;;;496032;241;1142;-71
2021/07/26 09:40:01;;;;;;;;;;;22.90;63.90;;;;;;495899;241;1389;-71
2021/07/26 09:42:02;;;;;;;;;;;23.00;63.50;;;;;;496211;236;1856;-71
2021/07/26 09:44:03;;;;;;;;;;;23.00;63.50;;;;;;495810;241;1102;-71
2021/07/26 09:46:05;;;;;;;;;;;23.00;63.60;;;;;;495689;241;2190;-71
2021/07/26 09:48:06;;;;;;;;;;;22.90;63.60;;;;;;496151;241;1213;-71
2021/07/26 09:50:08;;;;;;;;;;;22.90;63.60;;;;;;496177;236;1085;-71
2021/07/26 09:52:21;;;;;;;;;;;22.90;63.40;;;;;;496174;236;1189;-71
2021/07/26 09:54:17;;;;;;;;;;;23.00;63.30;;;;;;495197;241;1398;-71
2021/07/26 09:56:18;;;;;;;;;;;23.00;63.30;;;;;;495877;241;995;-71
2021/07/26 09:58:20;;;;;;;;;;;22.90;63.30;;;;;;495831;241;1042;-71
2021/07/26 10:00:22;;;;;;;;;;;22.90;63.50;;;;;;495774;241;1069;-70
2021/07/26 10:02:24;;;;;;;;;;;22.90;63.60;;;;;;495534;241;1470;-70
2021/07/26 10:04:25;;;;;;;;;;;22.90;63.50;;;;;;495565;241;1689;-70
2021/07/26 10:06:27;;;;;;;;;;;22.90;63.60;;;;;;495304;241;2178;-71
2021/07/26 10:08:28;;;;;;;;;;;22.80;63.80;;;;;;495226;241;1164;-71
2021/07/26 10:10:29;;;;;;;;;;;23.00;63.50;;;;;;495397;241;1452;-70
2021/07/26 10:12:31;;;;;;;;;;;22.90;63.30;;;;;;495551;241;1273;-71
2021/07/26 10:14:32;;;;;;;;;;;22.90;63.30;;;;;;495790;241;1328;-70
2021/07/26 10:16:33;;;;;;;;;;;22.90;63.40;;;;;;495854;241;1161;-70
2021/07/26 10:18:35;;;;;;;;;;;22.90;63.40;;;;;;495800;241;1190;-70
2021/07/26 10:20:36;;;;;;;;;;;22.90;63.40;;;;;;494388;241;1107;-71
2021/07/26 10:22:37;;;;;;;;;;;22.90;63.40;;;;;;494271;241;1190;-71
2021/07/26 10:24:39;;;;;;;;;;;22.90;63.50;;;;;;494225;241;1066;-71
2021/07/26 10:26:40;;;;;;;;;;;22.90;63.40;;;;;;494005;241;2115;-71
2021/07/26 10:28:41;;;;;;;;;;;23.00;63.40;;;;;;494168;241;1074;-71
2021/07/26 10:30:43;;;;;;;;;;;23.00;63.20;;;;;;494098;241;1151;-71
2021/07/26 10:32:44;;;;;;;;;;;23.00;63.10;;;;;;494099;241;1283;-71
2021/07/26 10:34:45;;;;;;;;;;;23.00;63.20;;;;;;494191;241;1112;-71
2021/07/26 10:36:47;;;;;;;;;;;23.00;63.20;;;;;;494226;241;1182;-71
2021/07/26 10:38:48;;;;;;;;;;;23.00;63.10;;;;;;494210;241;1119;-71
2021/07/26 10:40:53;;;;;;;;;;;23.00;63.10;;;;;;494171;241;1075;-71
2021/07/26 10:42:50;;;;;;;;;;;23.00;63.00;;;;;;493772;241;1316;-71
2021/07/26 10:44:52;;;;;;;;;;;23.00;63.00;;;;;;494207;241;1068;-71
2021/07/26 10:46:53;;;;;;;;;;;23.00;63.10;;;;;;494280;241;2182;-71
2021/07/26 10:48:54;;;;;;;;;;;22.90;63.10;;;;;;494364;241;1191;-71
2021/07/26 10:50:56;;;;;;;;;;;22.90;63.00;;;;;;494280;241;1055;-71
2021/07/26 10:52:57;;;;;;;;;;;22.90;62.90;;;;;;494231;241;1108;-71
2021/07/26 10:55:01;;;;;;;;;;;22.90;62.80;;;;;;494125;241;1068;-71
2021/07/26 10:57:00;;;;;;;;;;;22.80;63.00;;;;;;494039;241;1825;-71
2021/07/26 10:59:02;;;;;;;;;;;22.70;63.00;;;;;;494246;241;1100;-71
2021/07/26 11:01:03;;;;;;;;;;;22.90;62.80;;;;;;494063;241;1125;-71
2021/07/26 11:03:04;;;;;;;;;;;22.90;62.50;;;;;;494182;241;1146;-71
2021/07/26 11:05:06;;;;;;;;;;;22.90;62.30;;;;;;494206;241;1074;-71
2021/07/26 11:07:07;;;;;;;;;;;22.80;62.20;;;;;;494297;241;2194;-71
2021/07/26 11:09:08;;;;;;;;;;;22.90;62.00;;;;;;494624;241;1050;-71
2021/07/26 11:11:10;;;;;;;;;;;22.90;61.90;;;;;;494337;241;1241;-71
2021/07/26 11:13:11;;;;;;;;;;;22.90;61.90;;;;;;494328;241;1079;-71
2021/07/26 11:15:12;;;;;;;;;;;22.90;62.00;;;;;;494046;241;1057;-71
2021/07/26 11:17:15;;;;;;;;;;;22.80;62.00;;;;;;494096;241;1279;-71
2021/07/26 11:19:15;;;;;;;;;;;22.90;61.70;;;;;;494049;240;1423;-71
2021/07/26 11:21:17;;;;;;;;;;;22.90;61.70;;;;;;494164;241;1352;-71
2021/07/26 11:23:18;;;;;;;;;;;22.90;61.60;;;;;;494112;241;1147;-71
2021/07/26 11:25:20;;;;;;;;;;;22.70;62.00;;;;;;494137;241;1073;-71
2021/07/26 11:27:21;;;;;;;;;;;22.60;62.60;;;;;;494462;241;2136;-71
2021/07/26 11:29:22;;;;;;;;;;;22.60;62.70;;;;;;495113;241;1392;-71
2021/07/26 11:31:23;;;;;;;;;;;22.60;62.50;;;;;;494912;241;1387;-71
2021/07/26 11:33:25;;;;;;;;;;;22.60;62.50;;;;;;494673;241;1083;-71
2021/07/26 11:35:26;;;;;;;;;;;22.60;62.40;;;;;;494916;241;1076;-71
2021/07/26 11:37:27;;;;;;;;;;;22.60;62.40;;;;;;493995;241;1296;-71
2021/07/26 11:39:29;;;;;;;;;;;22.60;62.20;;;;;;494027;241;1276;-71
2021/07/26 11:41:30;;;;;;;;;;;22.60;62.20;;;;;;494216;241;1111;-71
2021/07/26 11:43:31;;;;;;;;;;;22.60;62.10;;;;;;494407;241;1373;-71
2021/07/26 11:45:33;;;;;;;;;;;22.60;62.10;;;;;;495117;241;930;-71
2021/07/26 11:47:34;;;;;;;;;;;22.60;62.30;;;;;;494380;241;2209;-71
2021/07/26 11:49:35;;;;;;;;;;;22.60;62.10;;;;;;494665;241;1094;-71
2021/07/26 11:51:37;;;;;;;;;;;22.60;62.20;;;;;;494549;241;1142;-71
2021/07/26 11:53:38;;;;;;;;;;;22.60;62.00;;;;;;494364;241;1050;-71
2021/07/26 11:55:40;;;;;;;;;;;22.60;62.20;;;;;;494758;241;1028;-71
2021/07/26 11:57:41;;;;;;;;;;;22.60;62.00;;;;;;494617;241;1109;-71
2021/07/26 11:59:43;;;;;;;;;;;22.60;62.10;;;;;;494120;241;1064;-71
2021/07/26 12:01:44;;;;;;;;;;;22.60;62.00;;;;;;493395;241;1217;-71
2021/07/26 12:03:45;;;;;;;;;;;22.60;62.00;;;;;;494179;241;1182;-71
2021/07/26 12:05:47;;;;;;;;;;;22.60;62.00;;;;;;494160;241;1137;-71
2021/07/26 12:07:48;;;;;;;;;;;22.70;61.70;;;;;;494306;241;2186;-71
2021/07/26 12:09:49;;;;;;;;;;;22.70;61.80;;;;;;494086;241;1490;-71
2021/07/26 12:11:51;;;;;;;;;;;22.70;61.80;;;;;;494131;241;1224;-71
2021/07/26 12:13:52;;;;;;;;;;;22.60;61.90;;;;;;494268;241;1120;-71
2021/07/26 12:15:53;;;;;;;;;;;22.60;61.80;;;;;;494187;241;1177;-71
2021/07/26 12:17:55;;;;;;;;;;;22.60;61.70;;;;;;494322;241;1190;-71
2021/07/26 12:19:56;;;;;;;;;;;22.70;61.70;;;;;;494331;241;1106;-71
2021/07/26 12:21:59;;;;;;;;;;;22.70;61.70;;;;;;494244;241;1107;-71
2021/07/26 12:23:59;;;;;;;;;;;22.60;61.90;;;;;;494173;241;1392;-71
2021/07/26 12:26:00;;;;;;;;;;;22.60;61.90;;;;;;494195;241;1277;-71
2021/07/26 12:28:02;;;;;;;;;;;22.60;61.80;;;;;;494188;241;2186;-71
2021/07/26 12:30:03;;;;;;;;;;;22.60;61.60;;;;;;494241;241;1111;-71
2021/07/26 12:32:05;;;;;;;;;;;22.70;61.60;;;;;;494260;241;1142;-71
2021/07/26 12:34:06;;;;;;;;;;;22.70;61.70;;;;;;494363;241;1147;-71
2021/07/26 12:36:07;;;;;;;;;;;22.70;61.70;;;;;;494281;241;1170;-71
2021/07/26 12:38:09;;;;;;;;;;;22.70;61.70;;;;;;494274;241;1125;-71
2021/07/26 12:40:10;;;;;;;;;;;22.60;61.80;;;;;;494216;241;1101;-71
2021/07/26 12:42:11;;;;;;;;;;;22.60;61.90;;;;;;494178;241;1074;-71
2021/07/26 12:44:13;;;;;;;;;;;22.60;61.80;;;;;;494147;241;1090;-71
2021/07/26 12:46:14;;;;;;;;;;;22.60;61.70;;;;;;494250;241;1073;-71
2021/07/26 12:48:15;;;;;;;;;;;22.60;61.70;;;;;;494283;241;2439;-71
2021/07/26 12:50:17;;;;;;;;;;;22.70;61.50;;;;;;494291;241;1199;-71
2021/07/26 12:52:18;;;;;;;;;;;22.60;61.60;;;;;;494194;241;1357;-71
2021/07/26 12:54:20;;;;;;;;;;;22.70;61.60;;;;;;494102;241;1130;-71
2021/07/26 12:56:21;;;;;;;;;;;22.60;61.50;;;;;;493996;241;1091;-71
2021/07/26 12:58:23;;;;;;;;;;;22.60;61.50;;;;;;494364;241;1260;-71
2021/07/26 13:00:24;;;;;;;;;;;22.60;61.50;;;;;;494213;241;1104;-71
2021/07/26 13:02:26;;;;;;;;;;;22.60;61.60;;;;;;494265;241;1171;-71
2021/07/26 13:04:27;;;;;;;;;;;22.60;61.70;;;;;;494119;241;1167;-72
2021/07/26 13:06:28;;;;;;;;;;;22.60;61.60;;;;;;494389;241;1198;-71
2021/07/26 13:08:30;;;;;;;;;;;22.60;61.60;;;;;;494542;241;2202;-71
2021/07/26 13:10:31;;;;;;;;;;;22.50;61.60;;;;;;494448;241;1069;-71
2021/07/26 13:12:32;;;;;;;;;;;22.60;61.60;;;;;;494507;241;1387;-71
2021/07/26 13:14:34;;;;;;;;;;;22.60;61.70;;;;;;494359;241;1118;-71
2021/07/26 13:16:35;;;;;;;;;;;22.50;61.60;;;;;;494477;241;1176;-71
2021/07/26 13:18:36;;;;;;;;;;;22.60;61.40;;;;;;494491;241;1183;-71